sensor_id;sensor_type;location;lat;lon;timestamp;temperature;humidity
17891;DHT22;9071;48.220;14.480;2022-09-30T00:02:05;11.30;99.90
17891;DHT22;9071;48.220;14.480;2022-09-30T00:07:11;11.30;99.90
17891;DHT22;9071;48.220;14.480;2022-09-30T00:12:13;11.30;99.90
17891;DHT22;9071;48.220;14.480;2022-09-30T00:17:15;11.30;99.90
17891;DHT22;9071;48.220;14.480;2022-09-30T00:22:18;11.30;99.90
17891;DHT22;9071;48.220;14.480;2022-09-30T00:27:20;11.30;99.90
17891;DHT22;9071;48.220;14.480;2022-09-30T00:32:22;11.20;99.90
17891;DHT22;9071;48.220;14.480;2022-09-30T00:37:26;11.20;99.90
17891;DHT22;9071;48.220;14.480;2022-09-30T00:42:28;11.20;99.90
17891;DHT22;9071;48.220;14.480;2022-09-30T00:47:45;11.20;99.90
17891;DHT22;9071;48.220;14.480;2022-09-30T00:52:54;11.20;99.90
17891;DHT22;9071;48.220;14.480;2022-09-30T00:58:00;11.20;99.90
17891;DHT22;9071;48.220;14.480;2022-09-30T01:03:05;11.10;99.90
17891;DHT22;9071;48.220;14.480;2022-09-30T01:08:09;11.10;99.90
17891;DHT22;9071;48.220;14.480;2022-09-30T01:13:12;11.10;99.90
17891;DHT22;9071;48.220;14.480;2022-09-30T01:18:22;11.10;99.90
17891;DHT22;9071;48.220;14.480;2022-09-30T01:23:54;11.10;99.90
17891;DHT22;9071;48.220;14.480;2022-09-30T01:34:36;11.10;99.90
17891;DHT22;9071;48.220;14.480;2022-09-30T01:39:49;11.10;99.90
17891;DHT22;9071;48.220;14.480;2022-09-30T01:44:59;11.10;99.90
17891;DHT22;9071;48.220;14.480;2022-09-30T01:50:11;11.10;99.90
17891;DHT22;9071;48.220;14.480;2022-09-30T01:55:19;11.10;99.90
17891;DHT22;9071;48.220;14.480;2022-09-30T02:00:23;11.10;99.90
17891;DHT22;9071;48.220;14.480;2022-09-30T02:05:31;11.00;99.90
17891;DHT22;9071;48.220;14.480;2022-09-30T02:10:40;11.00;99.90
17891;DHT22;9071;48.220;14.480;2022-09-30T02:15:50;11.10;99.90
17891;DHT22;9071;48.220;14.480;2022-09-30T02:20:58;11.10;99.90
17891;DHT22;9071;48.220;14.480;2022-09-30T02:26:05;11.00;99.90
17891;DHT22;9071;48.220;14.480;2022-09-30T02:31:09;11.10;99.90
17891;DHT22;9071;48.220;14.480;2022-09-30T02:36:19;11.10;99.90
17891;DHT22;9071;48.220;14.480;2022-09-30T02:41:23;11.10;99.90
17891;DHT22;9071;48.220;14.480;2022-09-30T02:46:33;11.10;99.90
17891;DHT22;9071;48.220;14.480;2022-09-30T02:51:47;11.10;99.90
17891;DHT22;9071;48.220;14.480;2022-09-30T02:56:55;11.10;99.90
17891;DHT22;9071;48.220;14.480;2022-09-30T03:01:59;11.10;99.90
17891;DHT22;9071;48.220;14.480;2022-09-30T03:07:03;11.10;99.90
17891;DHT22;9071;48.220;14.480;2022-09-30T03:12:15;11.10;99.90
17891;DHT22;9071;48.220;14.480;2022-09-30T03:17:38;11.10;99.90
17891;DHT22;9071;48.220;14.480;2022-09-30T03:22:57;11.10;99.90
17891;DHT22;9071;48.220;14.480;2022-09-30T03:28:14;11.10;99.90
17891;DHT22;9071;48.220;14.480;2022-09-30T03:33:21;11.10;99.90
17891;DHT22;9071;48.220;14.480;2022-09-30T03:38:35;11.10;99.90
17891;DHT22;9071;48.220;14.480;2022-09-30T03:43:43;11.10;99.90
17891;DHT22;9071;48.220;14.480;2022-09-30T03:48:47;11.10;99.90
17891;DHT22;9071;48.220;14.480;2022-09-30T03:53:51;11.10;99.90
17891;DHT22;9071;48.220;14.480;2022-09-30T03:58:55;11.10;99.90
17891;DHT22;9071;48.220;14.480;2022-09-30T04:03:58;11.10;99.90
17891;DHT22;9071;48.220;14.480;2022-09-30T04:09:01;11.10;99.90
17891;DHT22;9071;48.220;14.480;2022-09-30T04:14:03;11.10;99.90
17891;DHT22;9071;48.220;14.480;2022-09-30T04:19:06;11.10;99.90
17891;DHT22;9071;48.220;14.480;2022-09-30T04:24:09;11.10;99.90
17891;DHT22;9071;48.220;14.480;2022-09-30T04:29:11;11.10;99.90
17891;DHT22;9071;48.220;14.480;2022-09-30T04:34:13;11.10;99.90
17891;DHT22;9071;48.220;14.480;2022-09-30T04:39:17;11.10;99.90
17891;DHT22;9071;48.220;14.480;2022-09-30T04:44:19;11.10;99.90
17891;DHT22;9071;48.220;14.480;2022-09-30T04:49:22;11.00;99.90
17891;DHT22;9071;48.220;14.480;2022-09-30T04:54:25;11.00;99.90
17891;DHT22;9071;48.220;14.480;2022-09-30T04:59:27;11.00;99.90
17891;DHT22;9071;48.220;14.480;2022-09-30T05:04:29;11.00;99.90
17891;DHT22;9071;48.220;14.480;2022-09-30T05:09:34;11.00;99.90
17891;DHT22;9071;48.220;14.480;2022-09-30T05:14:36;11.00;99.90
17891;DHT22;9071;48.220;14.480;2022-09-30T05:19:38;11.00;99.90
17891;DHT22;9071;48.220;14.480;2022-09-30T05:24:42;11.10;99.90
17891;DHT22;9071;48.220;14.480;2022-09-30T05:29:44;11.10;99.90
17891;DHT22;9071;48.220;14.480;2022-09-30T05:34:46;11.10;99.90
17891;DHT22;9071;48.220;14.480;2022-09-30T05:39:50;11.10;99.90
17891;DHT22;9071;48.220;14.480;2022-09-30T05:44:51;11.10;99.90
17891;DHT22;9071;48.220;14.480;2022-09-30T05:49:54;11.10;99.90
17891;DHT22;9071;48.220;14.480;2022-09-30T05:54:57;11.10;99.90
17891;DHT22;9071;48.220;14.480;2022-09-30T06:00:00;11.20;99.90
17891;DHT22;9071;48.220;14.480;2022-09-30T06:05:04;11.20;99.90
17891;DHT22;9071;48.220;14.480;2022-09-30T06:10:08;11.20;99.90
17891;DHT22;9071;48.220;14.480;2022-09-30T06:15:11;11.20;99.90
17891;DHT22;9071;48.220;14.480;2022-09-30T06:20:14;11.10;99.90
17891;DHT22;9071;48.220;14.480;2022-09-30T06:25:18;11.10;99.90
17891;DHT22;9071;48.220;14.480;2022-09-30T06:30:20;11.20;99.90
17891;DHT22;9071;48.220;14.480;2022-09-30T06:35:22;11.10;99.90
17891;DHT22;9071;48.220;14.480;2022-09-30T06:40:27;11.10;99.90
17891;DHT22;9071;48.220;14.480;2022-09-30T06:45:30;11.10;99.90
17891;DHT22;9071;48.220;14.480;2022-09-30T06:50:33;11.20;99.90
17891;DHT22;9071;48.220;14.480;2022-09-30T06:55:37;11.40;99.90
17891;DHT22;9071;48.220;14.480;2022-09-30T07:00:39;11.50;99.90
17891;DHT22;9071;48.220;14.480;2022-09-30T07:05:41;11.50;99.90
17891;DHT22;9071;48.220;14.480;2022-09-30T07:10:46;11.50;99.90
17891;DHT22;9071;48.220;14.480;2022-09-30T07:15:49;11.50;99.90
17891;DHT22;9071;48.220;14.480;2022-09-30T07:20:55;11.50;99.90
17891;DHT22;9071;48.220;14.480;2022-09-30T07:26:00;11.50;99.90
17891;DHT22;9071;48.220;14.480;2022-09-30T07:31:11;11.70;99.90
17891;DHT22;9071;48.220;14.480;2022-09-30T07:36:14;11.80;99.90
17891;DHT22;9071;48.220;14.480;2022-09-30T07:41:22;11.90;99.90
17891;DHT22;9071;48.220;14.480;2022-09-30T07:46:28;12.00;99.90
17891;DHT22;9071;48.220;14.480;2022-09-30T07:51:33;12.10;99.90
17891;DHT22;9071;48.220;14.480;2022-09-30T07:56:37;12.10;99.90
17891;DHT22;9071;48.220;14.480;2022-09-30T08:01:39;12.20;99.90
17891;DHT22;9071;48.220;14.480;2022-09-30T08:06:44;12.10;99.90
17891;DHT22;9071;48.220;14.480;2022-09-30T08:11:48;12.10;99.90
17891;DHT22;9071;48.220;14.480;2022-09-30T08:16:51;12.10;99.90
17891;DHT22;9071;48.220;14.480;2022-09-30T08:21:53;12.20;99.90
17891;DHT22;9071;48.220;14.480;2022-09-30T08:26:57;12.30;99.90
17891;DHT22;9071;48.220;14.480;2022-09-30T08:31:59;12.30;99.90
17891;DHT22;9071;48.220;14.480;2022-09-30T08:37:02;12.40;99.90
17891;DHT22;9071;48.220;14.480;2022-09-30T08:42:29;12.40;99.90
17891;DHT22;9071;48.220;14.480;2022-09-30T08:47:42;12.50;99.90
17891;DHT22;9071;48.220;14.480;2022-09-30T08:52:50;12.60;99.90
17891;DHT22;9071;48.220;14.480;2022-09-30T08:57:55;12.70;99.90
17891;DHT22;9071;48.220;14.480;2022-09-30T09:02:59;12.80;99.90
17891;DHT22;9071;48.220;14.480;2022-09-30T09:08:08;13.10;99.90
17891;DHT22;9071;48.220;14.480;2022-09-30T09:13:36;13.40;99.90
17891;DHT22;9071;48.220;14.480;2022-09-30T09:18:52;13.50;99.90
17891;DHT22;9071;48.220;14.480;2022-09-30T09:24:00;13.70;99.90
17891;DHT22;9071;48.220;14.480;2022-09-30T09:29:18;13.80;99.90
17891;DHT22;9071;48.220;14.480;2022-09-30T09:34:23;13.90;99.90
17891;DHT22;9071;48.220;14.480;2022-09-30T09:39:47;14.20;99.90
17891;DHT22;9071;48.220;14.480;2022-09-30T09:44:56;14.30;99.90
17891;DHT22;9071;48.220;14.480;2022-09-30T09:50:02;14.40;99.90
17891;DHT22;9071;48.220;14.480;2022-09-30T09:55:04;14.60;99.90
17891;DHT22;9071;48.220;14.480;2022-09-30T10:00:21;14.70;99.90
17891;DHT22;9071;48.220;14.480;2022-09-30T10:05:41;14.80;99.90
17891;DHT22;9071;48.220;14.480;2022-09-30T10:10:47;14.50;99.90
17891;DHT22;9071;48.220;14.480;2022-09-30T10:15:52;14.50;99.90
17891;DHT22;9071;48.220;14.480;2022-09-30T10:20:57;14.40;99.90
17891;DHT22;9071;48.220;14.480;2022-09-30T10:26:02;14.40;99.90
17891;DHT22;9071;48.220;14.480;2022-09-30T10:31:12;14.50;99.90
17891;DHT22;9071;48.220;14.480;2022-09-30T10:36:17;14.70;99.90
17891;DHT22;9071;48.220;14.480;2022-09-30T10:41:24;15.00;99.90
17891;DHT22;9071;48.220;14.480;2022-09-30T10:46:31;15.20;99.90
17891;DHT22;9071;48.220;14.480;2022-09-30T10:51:34;15.90;99.90
17891;DHT22;9071;48.220;14.480;2022-09-30T10:56:40;16.10;99.90
17891;DHT22;9071;48.220;14.480;2022-09-30T11:01:47;16.10;99.90
17891;DHT22;9071;48.220;14.480;2022-09-30T11:06:55;16.10;99.90
17891;DHT22;9071;48.220;14.480;2022-09-30T11:12:04;16.20;99.90
17891;DHT22;9071;48.220;14.480;2022-09-30T11:17:23;16.10;99.90
17891;DHT22;9071;48.220;14.480;2022-09-30T11:22:34;16.20;99.90
17891;DHT22;9071;48.220;14.480;2022-09-30T11:27:47;16.70;99.90
17891;DHT22;9071;48.220;14.480;2022-09-30T11:33:05;17.20;99.90
17891;DHT22;9071;48.220;14.480;2022-09-30T11:38:26;17.50;99.90
17891;DHT22;9071;48.220;14.480;2022-09-30T11:43:41;17.50;99.90
17891;DHT22;9071;48.220;14.480;2022-09-30T11:49:03;17.00;99.90
17891;DHT22;9071;48.220;14.480;2022-09-30T11:54:24;16.80;99.90
17891;DHT22;9071;48.220;14.480;2022-09-30T11:59:29;17.10;99.90
17891;DHT22;9071;48.220;14.480;2022-09-30T12:04:38;16.40;99.90
17891;DHT22;9071;48.220;14.480;2022-09-30T12:09:44;16.00;99.90
17891;DHT22;9071;48.220;14.480;2022-09-30T12:14:52;15.70;99.90
17891;DHT22;9071;48.220;14.480;2022-09-30T12:20:01;15.70;99.90
17891;DHT22;9071;48.220;14.480;2022-09-30T12:25:12;15.80;99.90
17891;DHT22;9071;48.220;14.480;2022-09-30T12:30:17;16.00;99.90
17891;DHT22;9071;48.220;14.480;2022-09-30T12:35:39;16.10;99.90
17891;DHT22;9071;48.220;14.480;2022-09-30T12:41:02;16.40;99.90
17891;DHT22;9071;48.220;14.480;2022-09-30T12:46:13;16.70;99.90
17891;DHT22;9071;48.220;14.480;2022-09-30T12:51:26;17.00;99.90
17891;DHT22;9071;48.220;14.480;2022-09-30T12:56:31;16.40;99.90
17891;DHT22;9071;48.220;14.480;2022-09-30T13:01:35;15.80;99.90
17891;DHT22;9071;48.220;14.480;2022-09-30T13:07:15;15.70;99.90
17891;DHT22;9071;48.220;14.480;2022-09-30T13:12:25;16.10;99.90
17891;DHT22;9071;48.220;14.480;2022-09-30T13:17:27;16.50;99.90
17891;DHT22;9071;48.220;14.480;2022-09-30T13:22:42;16.50;99.90
17891;DHT22;9071;48.220;14.480;2022-09-30T13:27:45;16.60;99.90
17891;DHT22;9071;48.220;14.480;2022-09-30T13:33:04;16.50;99.90
17891;DHT22;9071;48.220;14.480;2022-09-30T13:38:16;16.50;99.90
17891;DHT22;9071;48.220;14.480;2022-09-30T13:43:27;16.60;99.90
17891;DHT22;9071;48.220;14.480;2022-09-30T13:48:33;16.70;99.90
17891;DHT22;9071;48.220;14.480;2022-09-30T13:53:40;16.90;99.90
17891;DHT22;9071;48.220;14.480;2022-09-30T14:04:51;16.20;99.90
17891;DHT22;9071;48.220;14.480;2022-09-30T14:10:17;16.20;99.90
17891;DHT22;9071;48.220;14.480;2022-09-30T14:15:54;16.40;99.90
17891;DHT22;9071;48.220;14.480;2022-09-30T14:21:14;16.50;99.90
17891;DHT22;9071;48.220;14.480;2022-09-30T14:26:36;16.50;99.90
17891;DHT22;9071;48.220;14.480;2022-09-30T14:31:43;16.50;99.90
17891;DHT22;9071;48.220;14.480;2022-09-30T14:36:46;16.40;99.90
17891;DHT22;9071;48.220;14.480;2022-09-30T14:41:53;16.40;99.90
17891;DHT22;9071;48.220;14.480;2022-09-30T14:46:58;16.40;99.90
17891;DHT22;9071;48.220;14.480;2022-09-30T14:52:02;16.30;99.90
17891;DHT22;9071;48.220;14.480;2022-09-30T14:57:15;16.20;99.90
17891;DHT22;9071;48.220;14.480;2022-09-30T15:02:18;16.20;99.90
17891;DHT22;9071;48.220;14.480;2022-09-30T15:07:21;16.10;99.90
17891;DHT22;9071;48.220;14.480;2022-09-30T15:12:24;16.10;99.90
17891;DHT22;9071;48.220;14.480;2022-09-30T15:17:29;16.00;99.90
17891;DHT22;9071;48.220;14.480;2022-09-30T15:22:36;15.90;99.90
17891;DHT22;9071;48.220;14.480;2022-09-30T15:27:39;15.80;99.90
17891;DHT22;9071;48.220;14.480;2022-09-30T15:32:44;15.70;99.90
17891;DHT22;9071;48.220;14.480;2022-09-30T15:37:47;15.50;99.90
17891;DHT22;9071;48.220;14.480;2022-09-30T15:42:55;15.40;99.90
17891;DHT22;9071;48.220;14.480;2022-09-30T15:48:00;15.30;99.90
17891;DHT22;9071;48.220;14.480;2022-09-30T15:53:03;15.20;99.90
17891;DHT22;9071;48.220;14.480;2022-09-30T15:58:30;15.10;99.90
17891;DHT22;9071;48.220;14.480;2022-09-30T16:03:33;14.90;99.90
17891;DHT22;9071;48.220;14.480;2022-09-30T16:08:41;14.80;99.90
17891;DHT22;9071;48.220;14.480;2022-09-30T16:13:45;14.70;99.90
17891;DHT22;9071;48.220;14.480;2022-09-30T16:18:48;14.60;99.90
17891;DHT22;9071;48.220;14.480;2022-09-30T16:23:51;14.50;99.90
17891;DHT22;9071;48.220;14.480;2022-09-30T16:28:55;14.30;99.90
17891;DHT22;9071;48.220;14.480;2022-09-30T16:34:01;14.30;99.90
17891;DHT22;9071;48.220;14.480;2022-09-30T16:39:03;14.10;99.90
17891;DHT22;9071;48.220;14.480;2022-09-30T16:44:06;14.00;99.90
17891;DHT22;9071;48.220;14.480;2022-09-30T16:49:12;13.90;99.90
17891;DHT22;9071;48.220;14.480;2022-09-30T16:54:15;13.90;99.90
17891;DHT22;9071;48.220;14.480;2022-09-30T16:59:19;13.90;99.90
17891;DHT22;9071;48.220;14.480;2022-09-30T17:04:21;13.90;99.90
17891;DHT22;9071;48.220;14.480;2022-09-30T17:09:23;13.90;99.90
17891;DHT22;9071;48.220;14.480;2022-09-30T17:14:27;14.00;99.90
17891;DHT22;9071;48.220;14.480;2022-09-30T17:19:29;13.90;99.90
17891;DHT22;9071;48.220;14.480;2022-09-30T17:24:34;13.80;99.90
17891;DHT22;9071;48.220;14.480;2022-09-30T17:29:38;13.80;99.90
17891;DHT22;9071;48.220;14.480;2022-09-30T17:34:40;13.70;99.90
17891;DHT22;9071;48.220;14.480;2022-09-30T17:39:42;13.70;99.90
17891;DHT22;9071;48.220;14.480;2022-09-30T17:44:45;13.70;99.90
17891;DHT22;9071;48.220;14.480;2022-09-30T17:49:48;13.70;99.90
17891;DHT22;9071;48.220;14.480;2022-09-30T17:54:51;13.70;99.90
17891;DHT22;9071;48.220;14.480;2022-09-30T17:59:54;13.70;99.90
17891;DHT22;9071;48.220;14.480;2022-09-30T18:04:58;13.60;99.90
17891;DHT22;9071;48.220;14.480;2022-09-30T18:10:00;13.60;99.90
17891;DHT22;9071;48.220;14.480;2022-09-30T18:15:04;13.50;99.90
17891;DHT22;9071;48.220;14.480;2022-09-30T18:20:07;13.50;99.90
17891;DHT22;9071;48.220;14.480;2022-09-30T18:25:10;13.40;99.90
17891;DHT22;9071;48.220;14.480;2022-09-30T18:30:23;13.30;99.90
17891;DHT22;9071;48.220;14.480;2022-09-30T18:35:25;13.30;99.90
17891;DHT22;9071;48.220;14.480;2022-09-30T18:40:30;13.30;99.90
17891;DHT22;9071;48.220;14.480;2022-09-30T18:45:33;13.30;99.90
17891;DHT22;9071;48.220;14.480;2022-09-30T18:50:37;13.30;99.90
17891;DHT22;9071;48.220;14.480;2022-09-30T18:55:40;13.30;99.90
17891;DHT22;9071;48.220;14.480;2022-09-30T19:00:44;13.20;99.90
17891;DHT22;9071;48.220;14.480;2022-09-30T19:05:47;13.10;99.90
17891;DHT22;9071;48.220;14.480;2022-09-30T19:10:50;13.10;99.90
17891;DHT22;9071;48.220;14.480;2022-09-30T19:16:01;13.10;99.90
17891;DHT22;9071;48.220;14.480;2022-09-30T19:21:05;13.00;99.90
17891;DHT22;9071;48.220;14.480;2022-09-30T19:26:08;12.90;99.90
17891;DHT22;9071;48.220;14.480;2022-09-30T19:31:13;12.90;99.90
17891;DHT22;9071;48.220;14.480;2022-09-30T19:36:16;12.80;99.90
17891;DHT22;9071;48.220;14.480;2022-09-30T19:41:18;12.80;99.90
17891;DHT22;9071;48.220;14.480;2022-09-30T19:46:24;12.70;99.90
17891;DHT22;9071;48.220;14.480;2022-09-30T19:51:26;12.70;99.90
17891;DHT22;9071;48.220;14.480;2022-09-30T19:56:30;12.70;99.90
17891;DHT22;9071;48.220;14.480;2022-09-30T20:01:33;12.70;99.90
17891;DHT22;9071;48.220;14.480;2022-09-30T20:06:35;12.70;99.90
17891;DHT22;9071;48.220;14.480;2022-09-30T20:11:38;12.60;99.90
17891;DHT22;9071;48.220;14.480;2022-09-30T20:16:42;12.60;99.90
17891;DHT22;9071;48.220;14.480;2022-09-30T20:21:45;12.60;99.90
17891;DHT22;9071;48.220;14.480;2022-09-30T20:26:47;12.50;99.90
17891;DHT22;9071;48.220;14.480;2022-09-30T20:31:51;12.40;99.90
17891;DHT22;9071;48.220;14.480;2022-09-30T20:36:53;12.40;99.90
17891;DHT22;9071;48.220;14.480;2022-09-30T20:41:55;12.50;99.90
17891;DHT22;9071;48.220;14.480;2022-09-30T20:46:59;12.50;99.90
17891;DHT22;9071;48.220;14.480;2022-09-30T20:52:02;12.50;99.90
17891;DHT22;9071;48.220;14.480;2022-09-30T20:57:05;12.50;99.90
17891;DHT22;9071;48.220;14.480;2022-09-30T21:02:10;12.50;99.90
17891;DHT22;9071;48.220;14.480;2022-09-30T21:07:13;12.50;99.90
17891;DHT22;9071;48.220;14.480;2022-09-30T21:12:15;12.50;99.90
17891;DHT22;9071;48.220;14.480;2022-09-30T21:17:19;12.40;99.90
17891;DHT22;9071;48.220;14.480;2022-09-30T21:22:21;12.50;99.90
17891;DHT22;9071;48.220;14.480;2022-09-30T21:27:23;12.40;99.90
17891;DHT22;9071;48.220;14.480;2022-09-30T21:32:27;12.40;99.90
17891;DHT22;9071;48.220;14.480;2022-09-30T21:37:29;12.50;99.90
17891;DHT22;9071;48.220;14.480;2022-09-30T21:42:31;12.50;99.90
17891;DHT22;9071;48.220;14.480;2022-09-30T21:47:35;12.40;99.90
17891;DHT22;9071;48.220;14.480;2022-09-30T21:52:37;12.40;99.90
17891;DHT22;9071;48.220;14.480;2022-09-30T21:57:39;12.30;99.90
17891;DHT22;9071;48.220;14.480;2022-09-30T22:02:42;12.40;99.90
17891;DHT22;9071;48.220;14.480;2022-09-30T22:07:44;12.40;99.90
17891;DHT22;9071;48.220;14.480;2022-09-30T22:12:46;12.50;99.90
17891;DHT22;9071;48.220;14.480;2022-09-30T22:17:51;12.40;99.90
17891;DHT22;9071;48.220;14.480;2022-09-30T22:22:53;12.50;99.90
17891;DHT22;9071;48.220;14.480;2022-09-30T22:27:55;12.50;99.90
17891;DHT22;9071;48.220;14.480;2022-09-30T22:32:58;12.50;99.90
17891;DHT22;9071;48.220;14.480;2022-09-30T22:38:14;12.40;99.90
17891;DHT22;9071;48.220;14.480;2022-09-30T22:43:16;12.40;99.90
17891;DHT22;9071;48.220;14.480;2022-09-30T22:48:19;12.40;99.90
17891;DHT22;9071;48.220;14.480;2022-09-30T22:53:21;12.50;99.90
17891;DHT22;9071;48.220;14.480;2022-09-30T22:58:25;12.40;99.90
17891;DHT22;9071;48.220;14.480;2022-09-30T23:03:29;12.40;99.90
17891;DHT22;9071;48.220;14.480;2022-09-30T23:08:32;12.50;99.90
17891;DHT22;9071;48.220;14.480;2022-09-30T23:13:41;12.50;99.90
17891;DHT22;9071;48.220;14.480;2022-09-30T23:18:45;12.40;99.90
17891;DHT22;9071;48.220;14.480;2022-09-30T23:23:47;12.50;99.90
17891;DHT22;9071;48.220;14.480;2022-09-30T23:28:49;12.40;99.90
17891;DHT22;9071;48.220;14.480;2022-09-30T23:33:54;12.40;99.90
17891;DHT22;9071;48.220;14.480;2022-09-30T23:38:59;12.40;99.90
17891;DHT22;9071;48.220;14.480;2022-09-30T23:44:02;12.40;99.90
17891;DHT22;9071;48.220;14.480;2022-09-30T23:49:06;12.40;99.90
17891;DHT22;9071;48.220;14.480;2022-09-30T23:54:08;12.30;99.90
17891;DHT22;9071;48.220;14.480;2022-09-30T23:59:10;12.30;99.90
